Terminal Aerodrome Forecast
Issued by NWS Memphis, TN

Home | Current Version | Previous Version | Text Only | Print | Product List | Glossary On
Versions: 1 2 3 4 5 6 7 8 9 10 11 12 13 14 15 16 17 18 19 20 21
000
FTUS44 KMEG 230521
TAFJBR
TAF
KJBR 230521Z 2306/2406 36010KT 6SM -DZ SCT008 OVC015
     FM231200 01012KT P6SM BKN025
     FM231500 01014G20KT P6SM SCT030
     FM240000 35006KT P6SM SKC=

USA.gov is the U.S. government's official web portal to all federal, state and local government web resources and services.